createdAt,value
2023-03-23T15:57:58.862Z,99464.00
2023-03-23T16:00:28.554Z,99474.00
2023-03-23T16:03:27.815Z,99494.00
2023-03-23T16:05:57.814Z,99505.00
2023-03-23T16:08:26.070Z,99507.00
2023-03-23T16:10:53.992Z,99499.00
2023-03-23T16:13:21.988Z,99489.00
2023-03-23T16:15:50.292Z,99492.00
2023-03-23T16:18:23.374Z,99495.00
2023-03-23T16:20:51.849Z,99479.00
2023-03-23T16:23:19.914Z,99478.00
2023-03-23T16:25:48.038Z,99469.00
2023-03-23T16:28:16.691Z,99466.00
2023-03-23T16:30:45.779Z,99467.00
2023-03-23T16:33:14.203Z,99459.00
2023-03-23T16:35:43.091Z,99455.00
2023-03-23T16:38:16.580Z,99444.00
2023-03-23T16:40:46.067Z,99458.00
2023-03-23T16:43:14.455Z,99459.00
2023-03-23T16:45:44.334Z,99448.00
2023-03-23T16:48:14.497Z,99453.00
2023-03-23T16:50:43.089Z,99444.00
2023-03-23T16:53:12.418Z,99435.00
2023-03-23T16:55:41.706Z,99444.00
2023-03-23T16:58:16.976Z,99452.00
2023-03-23T17:00:48.887Z,99441.00
2023-03-23T17:03:18.609Z,99438.00
2023-03-23T17:05:48.528Z,99436.00
2023-03-23T17:08:17.614Z,99447.00
2023-03-23T17:10:46.067Z,99449.00
2023-03-23T17:13:14.520Z,99443.00
2023-03-23T17:15:46.663Z,99450.00
2023-03-23T17:18:16.797Z,99451.00
2023-03-23T17:20:44.912Z,99449.00
2023-03-23T17:23:13.117Z,99450.00
2023-03-23T17:25:41.146Z,99444.00
2023-03-23T17:28:09.199Z,99444.00
2023-03-23T17:30:40.564Z,99441.00
2023-03-23T17:33:08.376Z,99433.00
2023-03-23T17:35:36.522Z,99448.00
2023-03-23T17:38:04.390Z,99455.00
2023-03-23T17:40:32.661Z,99464.00
2023-03-23T17:43:01.197Z,99469.00
2023-03-23T17:45:29.122Z,99483.00
2023-03-23T17:47:56.916Z,99475.00
2023-03-23T17:50:25.233Z,99465.00
2023-03-23T17:52:53.089Z,99459.00
2023-03-23T17:55:20.991Z,99451.00
2023-03-23T17:57:49.491Z,99450.00
2023-03-23T18:00:18.133Z,99451.00
2023-03-23T18:02:46.022Z,99454.00
2023-03-23T18:05:14.742Z,99466.00
2023-03-23T18:07:42.883Z,99452.00
2023-03-23T18:10:14.794Z,99452.00
2023-03-23T18:12:43.433Z,99450.00
2023-03-23T18:15:12.492Z,99460.00
2023-03-23T18:17:40.752Z,99453.00
2023-03-23T18:20:09.294Z,99456.00
2023-03-23T18:22:37.112Z,99471.00
2023-03-23T18:25:05.454Z,99469.00
2023-03-23T18:27:34.211Z,99464.00
2023-03-23T18:30:03.294Z,99478.00
2023-03-23T18:32:31.435Z,99482.00
2023-03-23T18:35:02.528Z,99486.00
2023-03-23T18:37:32.860Z,99480.00
2023-03-23T18:40:01.023Z,99493.00
2023-03-23T18:42:29.529Z,99492.00
2023-03-23T18:45:00.109Z,99495.00
2023-03-23T18:47:27.935Z,99497.00
2023-03-23T18:49:56.327Z,99504.00
2023-03-23T18:52:26.858Z,99491.00
2023-03-23T18:54:56.948Z,99492.00
2023-03-23T18:57:25.420Z,99498.00
2023-03-23T18:59:53.550Z,99496.00
2023-03-23T19:02:22.180Z,99506.00
2023-03-23T19:04:51.140Z,99500.00
2023-03-23T19:07:20.067Z,99492.00
2023-03-23T19:09:48.521Z,99499.00
2023-03-23T19:12:16.948Z,99496.00
2023-03-23T19:14:45.242Z,99484.00
2023-03-23T19:17:13.331Z,99501.00
2023-03-23T19:19:43.185Z,99491.00
2023-03-23T19:22:12.994Z,99481.00
2023-03-23T19:24:40.877Z,99487.00
2023-03-23T19:27:14.701Z,99480.00
2023-03-23T19:29:43.487Z,99472.00
2023-03-23T19:32:11.518Z,99473.00
2023-03-23T19:34:39.663Z,99471.00
2023-03-23T19:37:11.077Z,99459.00
2023-03-23T19:39:41.754Z,99468.00
2023-03-23T19:42:11.256Z,99466.00
2023-03-23T19:44:39.376Z,99456.00
2023-03-23T19:47:07.653Z,99453.00
2023-03-23T19:49:35.628Z,99450.00
2023-03-23T19:52:08.369Z,99442.00
2023-03-23T19:54:39.418Z,99440.00
2023-03-23T19:57:08.161Z,99442.00
2023-03-23T19:59:36.802Z,99445.00
2023-03-23T20:02:05.200Z,99451.00
2023-03-23T20:04:33.097Z,99439.00
2023-03-23T20:07:00.982Z,99428.00
2023-03-23T20:09:31.995Z,99432.00
2023-03-23T20:12:02.454Z,99427.00
2023-03-23T20:14:32.645Z,99425.00
2023-03-23T20:17:00.795Z,99415.00
2023-03-23T20:19:29.185Z,99419.00
2023-03-23T20:21:56.943Z,99416.00
2023-03-23T20:24:25.411Z,99413.00
2023-03-23T20:26:53.296Z,99415.00
2023-03-23T20:29:21.414Z,99416.00
2023-03-23T20:31:51.097Z,99427.00
2023-03-23T20:34:29.428Z,99421.00
2023-03-23T20:36:58.787Z,99424.00
2023-03-23T20:39:29.473Z,99413.00
2023-03-23T20:41:59.591Z,99415.00
2023-03-23T20:44:39.808Z,99411.00
2023-03-23T20:47:08.844Z,99406.00
2023-03-23T20:49:37.588Z,99405.00
2023-03-23T20:52:12.395Z,99396.00
2023-03-23T20:54:41.014Z,99402.00
2023-03-23T20:57:12.576Z,99415.00
2023-03-23T20:59:40.323Z,99410.00
2023-03-23T21:02:10.737Z,99414.00
2023-03-23T21:04:40.522Z,99411.00
2023-03-23T21:07:08.857Z,99416.00
2023-03-23T21:09:36.942Z,99414.00
2023-03-23T21:12:06.594Z,99419.00
2023-03-23T21:14:35.516Z,99422.00
2023-03-23T21:17:04.498Z,99417.00
2023-03-23T21:19:33.341Z,99415.00
2023-03-23T21:22:01.195Z,99406.00
2023-03-23T21:24:30.702Z,99408.00
2023-03-23T21:27:03.084Z,99401.00
2023-03-23T21:29:31.169Z,99404.00
2023-03-23T21:34:30.816Z,99400.00
2023-03-23T21:36:58.827Z,99401.00
2023-03-23T21:39:27.379Z,99396.00
2023-03-23T21:41:55.638Z,99383.00
2023-03-23T21:44:23.918Z,99381.00
2023-03-23T21:46:56.196Z,99379.00
2023-03-23T21:49:24.125Z,99381.00
2023-03-23T21:51:52.168Z,99382.00
2023-03-23T21:54:21.329Z,99377.00
2023-03-23T21:56:49.470Z,99371.00
2023-03-23T21:59:17.856Z,99365.00
2023-03-23T22:01:45.921Z,99371.00
2023-03-23T22:04:13.890Z,99376.00
2023-03-23T22:06:42.624Z,99366.00
2023-03-23T22:09:11.104Z,99365.00
2023-03-23T22:11:39.998Z,99362.00
2023-03-23T22:14:08.203Z,99357.00
2023-03-23T22:16:38.858Z,99351.00
2023-03-23T22:19:09.327Z,99346.00
2023-03-23T22:21:37.227Z,99344.00
2023-03-23T22:24:05.547Z,99340.00
2023-03-23T22:26:33.622Z,99335.00
2023-03-23T22:29:02.172Z,99334.00
2023-03-23T22:31:34.168Z,99323.00
2023-03-23T22:34:02.583Z,99324.00
2023-03-23T22:36:31.465Z,99322.00
2023-03-23T22:38:59.920Z,99324.00
2023-03-23T22:41:31.664Z,99318.00
2023-03-23T22:43:59.603Z,99309.00
2023-03-23T22:46:27.725Z,99299.00
2023-03-23T22:48:55.540Z,99295.00
2023-03-23T22:51:24.299Z,99299.00
2023-03-23T22:53:52.249Z,99297.00
2023-03-23T22:56:20.832Z,99295.00
2023-03-23T22:58:49.002Z,99293.00
2023-03-23T23:01:20.223Z,99295.00
2023-03-23T23:03:48.394Z,99307.00
2023-03-23T23:06:17.704Z,99293.00
2023-03-23T23:08:46.564Z,99289.00
2023-03-23T23:11:16.548Z,99278.00
2023-03-23T23:13:44.806Z,99277.00
2023-03-23T23:16:14.344Z,99264.00
2023-03-23T23:18:42.385Z,99269.00
2023-03-23T23:21:16.763Z,99269.00
2023-03-23T23:23:46.627Z,99257.00
2023-03-23T23:26:16.369Z,99263.00
2023-03-23T23:28:45.172Z,99256.00
2023-03-23T23:31:32.569Z,99242.00
2023-03-23T23:34:01.876Z,99241.00
2023-03-23T23:36:30.630Z,99228.00
2023-03-23T23:39:02.232Z,99228.00
2023-03-23T23:41:30.838Z,99221.00
2023-03-23T23:44:02.673Z,99221.00
2023-03-23T23:46:31.954Z,99222.00
2023-03-23T23:49:01.164Z,99220.00
2023-03-23T23:51:30.021Z,99214.00
2023-03-23T23:53:59.248Z,99219.00
2023-03-23T23:56:28.216Z,99205.00
2023-03-23T23:58:56.401Z,99210.00
